This is the latest recevied weather packets stored in our database for station/object AD7ZD. If no packets are shown the sender has not sent any weather packets the latest 10 day(s).
| Time | Temp. | Humidity | Pressure | Rain* | Wind** | Luminosity | Snow |
|---|---|---|---|---|---|---|---|
| 1778336821 | 15° C | 43% | 1018.2 hPa | 0 mm | - | 120 W/m² | - |
| 1778336518 | 14.44° C | 46% | 1018.3 hPa | 0 mm | - | 65 W/m² | - |
| 1778336213 | 13.33° C | 47% | 1018.3 hPa | 0 mm | - | 56 W/m² | - |
| 1778335607 | 12.78° C | 50% | 1018.2 hPa | 0 mm | - | 49 W/m² | - |
| 1778335002 | 11.67° C | 51% | 1018.3 hPa | 0 mm | - | 42 W/m² | - |
| 1778334094 | 10.56° C | 55% | 1018 hPa | 0 mm | - | 31 W/m² | - |
| 1778333791 | 8.33° C | 62% | 1017.8 hPa | 0 mm | - | 29 W/m² | - |
| 1778333488 | 8.89° C | 60% | 1017.8 hPa | 0 mm | - | 24 W/m² | - |
| 1778333186 | 8.89° C | 59% | 1017.8 hPa | 0 mm | - | 23 W/m² | - |
| 1778332885 | 8.89° C | 59% | 1017.7 hPa | 0 mm | - | 18 W/m² | - |
| 1778332580 | 8.89° C | 60% | 1017.5 hPa | 0 mm | - | 16 W/m² | - |
| 1778332278 | 8.33° C | 62% | 1017.4 hPa | 0 mm | - | 12 W/m² | - |
| 1778331973 | 8.33° C | 61% | 1017.6 hPa | 0 mm | - | 10 W/m² | - |
| 1778330154 | 7.78° C | 62% | 1017.4 hPa | 0 mm | - | 0 W/m² | - |
| 1778329851 | 7.78° C | 64% | 1017.2 hPa | 0 mm | - | 0 W/m² | - |
| 1778329547 | 7.78° C | 63% | 1017.4 hPa | 0 mm | - | 0 W/m² | - |
| 1778329245 | 8.33° C | 62% | 1017.1 hPa | 0 mm | - | 0 W/m² | - |
| 1778328941 | 8.33° C | 62% | 1017.1 hPa | 0 mm | - | 0 W/m² | - |
| 1778328638 | 8.33° C | 62% | 1016.9 hPa | 0 mm | - | 0 W/m² | - |
| 1778328337 | 8.33° C | 61% | 1017 hPa | 0 mm | - | 0 W/m² | - |
| 1778328035 | 8.89° C | 59% | 1017 hPa | 0 mm | - | 0 W/m² | - |
| 1778327731 | 8.89° C | 57% | 1016.8 hPa | 0 mm | - | 0 W/m² | - |
| 1778327429 | 9.44° C | 57% | 1016.9 hPa | 0 mm | - | 0 W/m² | - |
| 1778327127 | 8.89° C | 58% | 1016.8 hPa | 0 mm | - | 0 W/m² | - |
| 1778326221 | 10.56° C | 51% | 1016.9 hPa | 0 mm | - | 0 W/m² | - |
* Rain latest hour (hover to see other rain measurements)
** Current wind speed in m/s (hover to see current wind gust speed)